TimeEDT,TemperatureF,Dew PointF,Humidity,Sea Level PressureIn,VisibilityMPH,Wind Direction,Wind SpeedMPH,Gust SpeedMPH,PrecipitationIn,Events,Conditions,WindDirDegrees,DateUTC
12:51 AM,62.1,53.1,72,30.27,10.0,South,5.8,-,N/A,,Scattered Clouds,170,2012-09-13 04:51:00
1:51 AM,62.1,53.1,72,30.27,10.0,SSE,5.8,-,N/A,,Scattered Clouds,160,2012-09-13 05:51:00
2:51 AM,54.0,52.0,93,30.28,10.0,SE,4.6,-,N/A,,Scattered Clouds,130,2012-09-13 06:51:00
3:51 AM,53.1,52.0,96,30.28,10.0,East,4.6,-,N/A,,Partly Cloudy,100,2012-09-13 07:51:00
4:51 AM,53.1,51.1,93,30.28,9.0,ESE,5.8,-,N/A,,Partly Cloudy,120,2012-09-13 08:51:00
5:51 AM,53.1,51.1,93,30.29,9.0,SE,3.5,-,N/A,,Partly Cloudy,140,2012-09-13 09:51:00
6:51 AM,53.1,52.0,96,30.31,9.0,SSE,4.6,-,N/A,,Partly Cloudy,150,2012-09-13 10:51:00
7:51 AM,55.0,53.1,93,30.32,9.0,SE,4.6,-,N/A,,Scattered Clouds,140,2012-09-13 11:51:00
8:51 AM,64.9,55.9,73,30.32,10.0,South,5.8,-,N/A,,Scattered Clouds,180,2012-09-13 12:51:00
9:51 AM,70.0,57.9,65,30.32,10.0,SSW,4.6,-,N/A,,Scattered Clouds,200,2012-09-13 13:51:00
10:51 AM,73.0,59.0,61,30.32,10.0,SSW,5.8,-,N/A,,Partly Cloudy,200,2012-09-13 14:51:00
11:51 AM,77.0,60.1,56,30.32,10.0,SSW,4.6,-,N/A,,Clear,200,2012-09-13 15:51:00
12:51 PM,79.0,59.0,50,30.30,10.0,South,5.8,-,N/A,,Partly Cloudy,190,2012-09-13 16:51:00
1:51 PM,82.0,55.9,41,30.28,10.0,Variable,5.8,-,N/A,,Mostly Cloudy,0,2012-09-13 17:51:00
2:51 PM,81.0,55.9,42,30.26,10.0,SSW,5.8,-,N/A,,Mostly Cloudy,200,2012-09-13 18:51:00
3:51 PM,78.1,55.9,46,30.25,10.0,SSW,3.5,-,N/A,,Mostly Cloudy,200,2012-09-13 19:51:00
4:51 PM,81.0,55.9,42,30.23,10.0,SSE,6.9,-,N/A,,Scattered Clouds,160,2012-09-13 20:51:00
5:51 PM,80.1,57.9,47,30.22,10.0,SE,5.8,-,N/A,,Scattered Clouds,130,2012-09-13 21:51:00
6:51 PM,73.9,59.0,59,30.22,10.0,SE,4.6,-,N/A,,Mostly Cloudy,140,2012-09-13 22:51:00
7:51 PM,70.0,57.9,65,30.23,10.0,SSE,4.6,-,N/A,,Mostly Cloudy,160,2012-09-13 23:51:00
8:51 PM,71.1,55.9,59,30.22,10.0,South,4.6,-,N/A,,Overcast,170,2012-09-14 00:51:00
9:51 PM,70.0,55.0,59,30.22,10.0,South,4.6,-,N/A,,Mostly Cloudy,180,2012-09-14 01:51:00
10:51 PM,61.0,57.0,87,30.23,10.0,SE,4.6,-,N/A,,Scattered Clouds,140,2012-09-14 02:51:00
11:51 PM,66.0,55.9,70,30.22,10.0,South,5.8,-,N/A,,Mostly Cloudy,170,2012-09-14 03:51:00